createdAt,value
2022-08-12T00:02:03.271Z,6.02
2022-08-12T00:04:25.848Z,6.04
2022-08-12T00:06:52.261Z,6.12
2022-08-12T00:09:20.258Z,5.88
2022-08-12T00:11:49.535Z,5.99
2022-08-12T00:14:15.945Z,6.09
2022-08-12T00:16:42.341Z,5.75
2022-08-12T00:19:08.849Z,5.44
2022-08-12T00:21:35.939Z,5.36
2022-08-12T00:24:02.465Z,5.58
2022-08-12T00:26:28.873Z,5.63
2022-08-12T00:28:55.281Z,5.70
2022-08-12T00:31:21.706Z,5.80
2022-08-12T00:33:52.605Z,5.64
2022-08-12T00:36:35.056Z,5.81
2022-08-12T00:39:02.712Z,5.96
2022-08-12T00:41:29.113Z,5.77
2022-08-12T00:43:56.112Z,5.71
2022-08-12T00:46:22.768Z,5.72
2022-08-12T00:48:49.268Z,5.12
2022-08-12T00:51:15.664Z,5.57
2022-08-12T00:53:42.704Z,5.42
2022-08-12T00:56:09.128Z,5.60
2022-08-12T00:58:35.544Z,5.72
2022-08-12T01:01:01.993Z,5.46
2022-08-12T01:03:28.426Z,5.62
2022-08-12T01:05:54.837Z,5.33
2022-08-12T01:08:21.266Z,5.44
2022-08-12T01:10:47.694Z,5.35
2022-08-12T01:13:19.234Z,5.47
2022-08-12T01:15:46.723Z,5.41
2022-08-12T01:18:13.126Z,5.54
2022-08-12T01:20:39.534Z,5.82
2022-08-12T01:23:05.946Z,5.66
2022-08-12T01:25:32.353Z,5.28
2022-08-12T01:27:58.752Z,5.18
2022-08-12T01:30:25.254Z,5.66
2022-08-12T01:32:51.667Z,5.33
2022-08-12T01:35:18.071Z,5.15
2022-08-12T01:37:44.498Z,5.33
2022-08-12T01:40:34.843Z,5.32
2022-08-12T01:42:57.324Z,5.37
2022-08-12T01:45:23.734Z,5.08
2022-08-12T01:47:50.159Z,5.54
2022-08-12T01:50:16.572Z,5.66
2022-08-12T01:52:42.990Z,5.23
2022-08-12T01:55:09.403Z,5.34
2022-08-12T01:57:58.166Z,5.18
2022-08-12T02:00:22.202Z,5.72
2022-08-12T02:03:02.536Z,5.12
2022-08-12T02:05:28.945Z,5.28
2022-08-12T02:07:59.624Z,5.31
2022-08-12T02:10:49.933Z,5.24
2022-08-12T02:13:12.448Z,5.28
2022-08-12T02:15:38.856Z,5.53
2022-08-12T02:18:05.256Z,5.34
2022-08-12T02:20:35.290Z,5.25
2022-08-12T02:23:18.145Z,5.22
2022-08-12T02:25:44.556Z,5.56
2022-08-12T02:28:11.010Z,5.29
2022-08-12T02:30:41.841Z,5.19
2022-08-12T02:33:08.993Z,5.04
2022-08-12T02:35:35.396Z,5.15
2022-08-12T02:38:01.900Z,5.22
2022-08-12T02:40:28.306Z,5.28
2022-08-12T02:42:54.722Z,5.34
2022-08-12T02:45:21.129Z,5.48
2022-08-12T02:48:00.634Z,5.17
2022-08-12T02:50:27.704Z,5.12
2022-08-12T02:52:54.110Z,5.34
2022-08-12T02:55:28.263Z,5.46
2022-08-12T02:58:01.150Z,5.24
2022-08-12T03:00:33.316Z,5.26
2022-08-12T03:02:59.729Z,5.04
2022-08-12T03:05:26.143Z,5.47
2022-08-12T03:07:59.692Z,5.39
2022-08-12T03:10:37.310Z,5.45
2022-08-12T03:13:04.429Z,5.59
2022-08-12T03:15:30.835Z,5.28
2022-08-12T03:18:26.454Z,5.72
2022-08-12T03:20:43.644Z,5.33
2022-08-12T03:23:10.059Z,5.27
2022-08-12T03:25:45.801Z,5.38
2022-08-12T03:28:23.480Z,5.24
2022-08-12T03:30:54.771Z,5.42
2022-08-12T03:33:23.093Z,5.23
2022-08-12T03:35:49.492Z,5.32
2022-08-12T03:38:15.911Z,5.26
2022-08-12T03:40:42.321Z,5.21
2022-08-12T03:43:08.739Z,5.30
2022-08-12T03:45:42.962Z,5.47
2022-08-12T03:48:19.540Z,5.31
2022-08-12T03:50:46.012Z,5.73
2022-08-12T03:53:12.419Z,5.17
2022-08-12T03:55:38.828Z,5.17
2022-08-12T03:58:05.246Z,5.01
2022-08-12T04:00:31.657Z,5.13
2022-08-12T04:02:58.077Z,4.99
2022-08-12T04:05:24.498Z,5.34
2022-08-12T04:08:10.897Z,5.11
2022-08-12T04:10:37.296Z,5.35
2022-08-12T04:13:03.697Z,5.15
2022-08-12T04:15:30.119Z,5.25
2022-08-12T04:18:07.522Z,5.38
2022-08-12T04:20:34.330Z,5.46
2022-08-12T04:23:00.750Z,5.39
2022-08-12T04:25:27.148Z,5.35
2022-08-12T04:27:53.570Z,5.22
2022-08-12T04:30:32.462Z,5.44
2022-08-12T04:32:59.903Z,5.47
2022-08-12T04:35:26.300Z,5.27
2022-08-12T04:37:58.363Z,5.62
2022-08-12T04:40:28.183Z,5.15
2022-08-12T04:42:54.964Z,5.72
2022-08-12T04:45:22.682Z,5.37
2022-08-12T04:47:49.255Z,5.34
2022-08-12T04:50:34.037Z,5.45
2022-08-12T04:53:01.906Z,5.29
2022-08-12T04:55:28.320Z,5.47
2022-08-12T04:57:54.717Z,5.17
2022-08-12T05:00:21.122Z,5.41
2022-08-12T05:02:47.574Z,5.17
2022-08-12T05:05:14.000Z,5.49
2022-08-12T05:07:54.322Z,5.32
2022-08-12T05:10:21.482Z,5.35
2022-08-12T05:13:00.469Z,5.52
2022-08-12T05:15:29.369Z,5.01
2022-08-12T05:17:56.270Z,5.37
2022-08-12T05:20:26.677Z,5.15
2022-08-12T05:22:57.393Z,5.20
2022-08-12T05:25:24.036Z,5.27
2022-08-12T05:27:58.818Z,5.61
2022-08-12T05:30:25.668Z,5.03
2022-08-12T05:32:53.616Z,5.27
2022-08-12T05:35:21.668Z,5.46
2022-08-12T05:37:48.991Z,5.30
2022-08-12T05:40:15.394Z,5.13
2022-08-12T05:42:42.148Z,5.11
2022-08-12T05:45:08.818Z,5.26
2022-08-12T05:47:42.553Z,5.68
2022-08-12T05:50:20.609Z,5.47
2022-08-12T05:52:48.074Z,5.30
2022-08-12T05:55:14.949Z,5.32
2022-08-12T05:57:41.370Z,5.12
2022-08-12T06:00:07.780Z,5.20
2022-08-12T06:02:34.198Z,5.14
2022-08-12T06:05:00.617Z,5.07
2022-08-12T06:07:48.687Z,5.12
2022-08-12T06:10:13.443Z,5.34
2022-08-12T06:12:39.945Z,5.36
2022-08-12T06:15:06.439Z,4.61
2022-08-12T06:17:32.855Z,5.23
2022-08-12T06:20:26.537Z,5.23
2022-08-12T06:22:45.750Z,4.84
2022-08-12T06:25:17.497Z,4.95
2022-08-12T06:28:05.834Z,5.19
2022-08-12T06:30:37.942Z,5.05
2022-08-12T06:33:18.576Z,5.07
2022-08-12T06:35:49.906Z,5.20
2022-08-12T06:38:16.712Z,5.30
2022-08-12T06:40:43.108Z,5.24
2022-08-12T06:43:09.531Z,4.96
2022-08-12T06:45:45.471Z,5.05
2022-08-12T06:48:12.880Z,5.07
2022-08-12T06:50:40.175Z,5.08
2022-08-12T06:53:06.848Z,5.02
2022-08-12T06:55:33.259Z,5.03
2022-08-12T06:58:07.663Z,5.16
2022-08-12T07:00:36.382Z,5.38
2022-08-12T07:03:16.559Z,4.88
2022-08-12T07:05:49.315Z,5.17
2022-08-12T07:08:17.376Z,5.11
2022-08-12T07:10:43.784Z,5.02
2022-08-12T07:13:10.186Z,5.24
2022-08-12T07:15:36.607Z,5.31
2022-08-12T07:18:03.004Z,5.20
2022-08-12T07:20:51.307Z,5.14
2022-08-12T07:23:15.810Z,5.03
2022-08-12T07:25:42.235Z,5.23
2022-08-12T07:28:13.476Z,5.07
2022-08-12T07:30:42.908Z,5.02
2022-08-12T07:33:09.322Z,5.31
2022-08-12T07:35:35.742Z,5.25
2022-08-12T07:38:02.144Z,5.12
2022-08-12T07:40:28.548Z,5.09
2022-08-12T07:42:55.028Z,4.93
2022-08-12T07:45:21.440Z,5.31
2022-08-12T07:47:47.841Z,5.21
2022-08-12T07:50:14.254Z,5.09
2022-08-12T07:52:40.779Z,4.90
2022-08-12T07:55:07.299Z,5.04
2022-08-12T07:57:33.882Z,5.23
2022-08-12T08:00:00.295Z,5.12
2022-08-12T08:02:27.260Z,4.93
2022-08-12T08:04:53.770Z,4.86
2022-08-12T08:07:20.174Z,4.84
2022-08-12T08:09:46.568Z,4.99
2022-08-12T08:12:18.727Z,4.77
2022-08-12T08:14:46.065Z,4.66
2022-08-12T08:17:16.101Z,5.31
2022-08-12T08:20:00.240Z,5.20
2022-08-12T08:22:41.819Z,5.01
2022-08-12T08:25:36.146Z,5.36
2022-08-12T08:28:01.666Z,4.83
2022-08-12T08:30:28.076Z,5.03
2022-08-12T08:32:54.474Z,4.76
2022-08-12T08:35:20.891Z,4.49
2022-08-12T08:37:49.513Z,4.76
2022-08-12T08:40:15.938Z,4.73
2022-08-12T08:42:42.446Z,4.74
2022-08-12T08:45:08.954Z,4.90
2022-08-12T08:47:35.362Z,4.88
2022-08-12T08:50:01.774Z,5.14
2022-08-12T08:52:38.874Z,5.40
2022-08-12T08:55:07.132Z,5.10
2022-08-12T08:57:43.202Z,5.41
2022-08-12T09:00:10.938Z,5.14
2022-08-12T09:02:48.854Z,5.20
2022-08-12T09:05:25.372Z,5.30
2022-08-12T09:08:08.951Z,5.17
2022-08-12T09:10:38.738Z,5.11
2022-08-12T09:13:06.238Z,5.09
2022-08-12T09:15:35.728Z,4.99
2022-08-12T09:18:02.545Z,5.18
2022-08-12T09:26:04.135Z,5.51
2022-08-12T09:28:31.666Z,4.82
2022-08-12T09:30:58.992Z,5.27
2022-08-12T09:34:25.135Z,5.04
2022-08-12T09:36:12.039Z,5.07
2022-08-12T09:38:58.846Z,5.16
2022-08-12T09:42:33.817Z,4.90
2022-08-12T09:44:38.839Z,5.15
2022-08-12T09:47:00.439Z,4.86
2022-08-12T09:49:27.974Z,4.70
2022-08-12T09:51:54.377Z,4.86
2022-08-12T09:54:33.326Z,4.73
2022-08-12T09:58:07.082Z,4.79
2022-08-12T10:00:16.633Z,4.73
2022-08-12T10:02:44.300Z,4.55
2022-08-12T10:05:17.794Z,4.56
2022-08-12T10:07:44.453Z,4.48
2022-08-12T10:10:22.835Z,4.46
2022-08-12T10:13:06.773Z,4.52
2022-08-12T10:16:01.453Z,4.52
2022-08-12T10:18:26.309Z,4.64
2022-08-12T10:20:52.852Z,4.14
2022-08-12T10:23:19.959Z,4.27
2022-08-12T10:26:35.863Z,4.28
2022-08-12T10:29:02.559Z,4.54
2022-08-12T10:31:47.231Z,4.71
2022-08-12T10:34:26.024Z,4.23
2022-08-12T10:36:53.130Z,4.67
2022-08-12T10:40:00.760Z,4.56
2022-08-12T10:42:07.007Z,4.74
2022-08-12T10:44:33.463Z,4.69
2022-08-12T10:47:01.575Z,4.66
2022-08-12T10:50:02.381Z,4.71
2022-08-12T10:52:33.828Z,4.77
2022-08-12T10:55:13.883Z,4.57
2022-08-12T10:58:13.207Z,4.37
2022-08-12T11:00:35.582Z,4.40
2022-08-12T11:04:23.364Z,4.39
2022-08-12T11:07:08.461Z,4.53
2022-08-12T11:08:46.377Z,4.62
2022-08-12T11:11:16.877Z,4.17
2022-08-12T11:13:46.672Z,4.10
2022-08-12T11:16:22.174Z,4.44
2022-08-12T11:18:55.038Z,4.38
2022-08-12T11:21:51.445Z,4.34
2022-08-12T11:24:18.808Z,4.45
2022-08-12T11:30:01.707Z,4.57
2022-08-12T11:32:28.772Z,4.28
2022-08-12T11:34:55.435Z,4.38
2022-08-12T11:37:26.844Z,4.49
2022-08-12T11:42:33.248Z,4.30
2022-08-12T11:44:59.675Z,4.46
2022-08-12T11:47:26.084Z,4.29
2022-08-12T11:49:52.527Z,3.92
2022-08-12T11:52:55.551Z,4.32
2022-08-12T11:55:05.349Z,4.34
2022-08-12T11:58:34.110Z,4.58
2022-08-12T12:03:04.664Z,4.23
2022-08-12T12:05:41.786Z,4.37
2022-08-12T12:08:37.250Z,4.45
2022-08-12T12:10:59.307Z,4.23
2022-08-12T12:14:07.882Z,4.46
2022-08-12T12:16:12.318Z,4.03
2022-08-12T12:18:38.724Z,4.20
2022-08-12T12:21:05.376Z,3.92
2022-08-12T12:23:36.198Z,4.01
2022-08-12T12:26:07.932Z,4.03
2022-08-12T12:28:36.885Z,3.93
2022-08-12T12:31:04.489Z,3.94
2022-08-12T12:33:46.172Z,3.82
2022-08-12T12:36:24.173Z,3.97
2022-08-12T12:38:56.266Z,3.98
2022-08-12T12:41:22.666Z,3.70
2022-08-12T12:44:13.378Z,3.93
2022-08-12T12:46:51.972Z,3.79
2022-08-12T12:49:26.229Z,3.82
2022-08-12T12:52:18.172Z,3.56
2022-08-12T12:54:39.284Z,3.59
2022-08-12T12:57:06.650Z,3.62
2022-08-12T12:59:56.321Z,3.75
2022-08-12T13:02:31.706Z,3.68
2022-08-12T13:04:58.355Z,3.61
2022-08-12T13:07:54.306Z,3.73
2022-08-12T13:10:11.180Z,3.43
2022-08-12T13:12:39.882Z,3.65
2022-08-12T13:15:06.454Z,3.61
2022-08-12T13:17:45.141Z,3.54
2022-08-12T13:20:38.187Z,3.53
2022-08-12T13:23:35.884Z,3.42
2022-08-12T13:25:52.036Z,3.44
2022-08-12T13:28:20.060Z,3.45
2022-08-12T13:30:48.441Z,3.43
2022-08-12T13:33:19.024Z,3.31
2022-08-12T13:36:05.718Z,3.70
2022-08-12T13:38:34.932Z,3.46
2022-08-12T13:41:01.832Z,3.31
2022-08-12T13:43:41.065Z,3.48
2022-08-12T13:46:08.180Z,3.40
2022-08-12T13:48:38.888Z,3.27
2022-08-12T13:51:11.244Z,3.23
2022-08-12T13:53:55.542Z,3.30
2022-08-12T13:56:24.033Z,3.24
2022-08-12T13:58:52.551Z,3.13
2022-08-12T14:01:19.225Z,3.12
2022-08-12T14:03:51.409Z,3.05
2022-08-12T14:06:18.279Z,2.92
2022-08-12T14:08:45.108Z,2.86
2022-08-12T14:11:16.423Z,2.92
2022-08-12T14:14:03.905Z,2.84
2022-08-12T14:16:38.228Z,3.06
2022-08-12T14:19:24.551Z,2.87
2022-08-12T14:21:59.564Z,2.96
2022-08-12T14:24:30.782Z,2.82
2022-08-12T14:26:57.425Z,2.64
2022-08-12T14:29:38.114Z,2.59
2022-08-12T14:32:16.392Z,2.62
2022-08-12T14:34:44.171Z,2.67
2022-08-12T14:37:13.131Z,2.58
2022-08-12T14:39:57.163Z,2.64
2022-08-12T14:42:23.689Z,2.68
2022-08-12T14:44:59.186Z,2.66
2022-08-12T14:47:26.575Z,2.50
2022-08-12T14:50:37.502Z,2.28
2022-08-12T14:54:27.482Z,2.52
2022-08-12T14:58:15.036Z,2.46
2022-08-12T15:00:44.746Z,2.44
2022-08-12T15:03:14.119Z,2.24
2022-08-12T15:06:06.122Z,2.45
2022-08-12T15:08:28.026Z,2.66
2022-08-12T15:10:55.012Z,2.50
2022-08-12T15:13:21.426Z,2.36
2022-08-12T15:15:47.980Z,2.36
2022-08-12T15:18:14.392Z,2.39
2022-08-12T15:20:40.805Z,2.45
2022-08-12T15:23:17.705Z,2.51
2022-08-12T15:25:47.938Z,2.22
2022-08-12T15:28:21.244Z,2.42
2022-08-12T15:30:48.651Z,2.35
2022-08-12T15:33:18.868Z,2.42
2022-08-12T15:35:52.060Z,2.43
2022-08-12T15:38:20.224Z,2.24
2022-08-12T15:40:48.413Z,2.40
2022-08-12T15:43:15.112Z,2.58
2022-08-12T15:46:01.510Z,2.49
2022-08-12T15:48:30.545Z,2.66
2022-08-12T15:50:57.034Z,2.36
2022-08-12T15:53:23.533Z,2.56
2022-08-12T15:55:53.521Z,2.31
2022-08-12T15:58:27.130Z,2.52
2022-08-12T16:00:57.246Z,2.52
2022-08-12T16:03:25.788Z,2.47
2022-08-12T16:06:11.951Z,2.55
2022-08-12T16:08:38.677Z,2.27
2022-08-12T16:11:07.353Z,2.40
2022-08-12T16:13:44.363Z,2.31
2022-08-12T16:16:22.473Z,2.32
2022-08-12T16:18:50.249Z,2.27
2022-08-12T16:21:52.197Z,2.36
2022-08-12T16:24:03.050Z,2.23
2022-08-12T16:26:32.851Z,2.40
2022-08-12T16:29:15.309Z,2.46
2022-08-12T16:31:42.551Z,2.27
2022-08-12T16:34:10.734Z,2.52
2022-08-12T16:36:51.956Z,2.37
2022-08-12T16:39:19.952Z,2.42
2022-08-12T16:41:46.586Z,2.26
2022-08-12T16:44:13.002Z,2.53
2022-08-12T16:46:57.684Z,2.41
2022-08-12T16:49:24.675Z,2.47
2022-08-12T16:51:51.960Z,2.55
2022-08-12T16:54:18.372Z,2.21
2022-08-12T16:56:55.622Z,2.23
2022-08-12T16:59:24.309Z,2.40
2022-08-12T17:01:50.801Z,2.20
2022-08-12T17:04:18.141Z,2.31
2022-08-12T17:06:44.911Z,2.39
2022-08-12T17:09:17.361Z,2.22
2022-08-12T17:11:44.695Z,2.22
2022-08-12T17:14:13.284Z,2.43
2022-08-12T17:16:39.694Z,2.40
2022-08-12T17:19:09.249Z,2.31
2022-08-12T17:21:41.277Z,2.46
2022-08-12T17:24:18.071Z,2.33
2022-08-12T17:26:49.410Z,2.55
2022-08-12T17:29:16.751Z,2.52
2022-08-12T17:32:02.562Z,2.17
2022-08-12T17:34:29.039Z,2.33
2022-08-12T17:36:55.453Z,2.33
2022-08-12T17:39:23.600Z,2.37
2022-08-12T17:41:56.276Z,2.40
2022-08-12T17:44:23.902Z,2.37
2022-08-12T17:46:53.929Z,2.29
2022-08-12T17:50:03.497Z,2.29
2022-08-12T17:52:06.957Z,2.42
2022-08-12T17:54:33.355Z,2.40
2022-08-12T17:56:59.767Z,2.42
2022-08-12T17:59:47.799Z,2.55
2022-08-12T18:02:14.210Z,2.54
2022-08-12T18:04:40.614Z,2.38
2022-08-12T18:07:28.002Z,2.22
2022-08-12T18:09:55.192Z,2.38
2022-08-12T18:12:24.202Z,2.17
2022-08-12T18:14:51.332Z,2.42
2022-08-12T18:17:20.173Z,2.47
2022-08-12T18:20:05.504Z,2.46
2022-08-12T18:22:34.116Z,2.22
2022-08-12T18:25:04.197Z,2.42
2022-08-12T18:27:44.136Z,2.29
2022-08-12T18:30:11.473Z,2.57
2022-08-12T18:32:53.992Z,2.55
2022-08-12T18:35:29.942Z,2.78
2022-08-12T18:38:11.477Z,2.92
2022-08-12T18:40:43.117Z,2.75
2022-08-12T18:43:15.133Z,2.82
2022-08-12T18:45:47.293Z,2.76
2022-08-12T18:48:24.006Z,2.78
2022-08-12T18:50:50.430Z,2.79
2022-08-12T18:54:06.551Z,2.83
2022-08-12T18:56:03.212Z,2.64
2022-08-12T18:58:30.247Z,2.53
2022-08-12T19:00:56.933Z,2.95
2022-08-12T19:03:39.655Z,2.89
2022-08-12T19:06:06.584Z,2.79
2022-08-12T19:08:33.012Z,2.73
2022-08-12T19:10:59.417Z,2.62
2022-08-12T19:13:27.082Z,3.04
2022-08-12T19:16:01.600Z,2.78
2022-08-12T19:18:30.231Z,2.76
2022-08-12T19:20:58.542Z,2.56
2022-08-12T19:23:25.122Z,2.65
2022-08-12T19:26:02.855Z,2.68
2022-08-12T19:28:34.820Z,2.62
2022-08-12T19:31:02.293Z,2.76
2022-08-12T19:33:28.719Z,2.56
2022-08-12T19:36:07.805Z,2.47
2022-08-12T19:38:46.804Z,2.70
2022-08-12T19:41:23.059Z,2.58
2022-08-12T19:44:00.404Z,2.68
2022-08-12T19:46:35.860Z,2.59
2022-08-12T19:49:03.012Z,2.64
2022-08-12T19:51:30.640Z,2.73
2022-08-12T19:53:59.900Z,2.59
2022-08-12T19:56:26.312Z,2.62
2022-08-12T19:58:52.722Z,2.60
2022-08-12T20:01:20.341Z,2.64
2022-08-12T20:03:46.789Z,2.74
2022-08-12T20:06:28.447Z,2.63
2022-08-12T20:08:57.851Z,2.77
2022-08-12T20:12:10.390Z,2.56
2022-08-12T20:14:10.712Z,2.41
2022-08-12T20:16:57.906Z,2.67
2022-08-12T20:19:23.625Z,2.56
2022-08-12T20:21:50.102Z,2.51
2022-08-12T20:24:16.592Z,2.72
2022-08-12T20:26:45.617Z,2.59
2022-08-12T20:29:12.537Z,2.56
2022-08-12T20:31:38.951Z,2.59
2022-08-12T20:34:05.350Z,2.54
2022-08-12T20:36:41.590Z,2.39
2022-08-12T20:39:35.884Z,2.46
2022-08-12T20:41:55.923Z,2.60
2022-08-12T20:44:22.325Z,2.41
2022-08-12T20:46:48.747Z,2.63
2022-08-12T20:49:17.766Z,2.44
2022-08-12T20:51:54.854Z,2.48
2022-08-12T20:54:22.299Z,2.48
2022-08-12T20:56:48.711Z,2.52
2022-08-12T20:59:20.307Z,2.71
2022-08-12T21:01:48.708Z,2.44
2022-08-12T21:04:15.388Z,2.57
2022-08-12T21:06:42.425Z,2.48
2022-08-12T21:09:08.821Z,2.65
2022-08-12T21:11:35.941Z,2.51
2022-08-12T21:14:04.110Z,2.74
2022-08-12T21:16:35.328Z,2.53
2022-08-12T21:19:02.503Z,2.61
2022-08-12T21:21:46.984Z,2.73
2022-08-12T21:24:16.847Z,2.53
2022-08-12T21:26:53.406Z,2.50
2022-08-12T21:29:20.203Z,2.59
2022-08-12T21:32:39.760Z,2.50
2022-08-12T21:34:33.009Z,2.57
2022-08-12T21:36:59.759Z,2.57
2022-08-12T21:39:35.570Z,2.53
2022-08-12T21:42:06.500Z,2.39
2022-08-12T21:45:46.240Z,2.63
2022-08-12T21:47:21.966Z,2.51
2022-08-12T21:49:53.632Z,2.41
2022-08-12T21:52:21.455Z,2.65
2022-08-12T21:54:56.413Z,2.75
2022-08-12T21:57:23.086Z,2.57
2022-08-12T21:59:49.889Z,2.61
2022-08-12T22:02:20.462Z,2.69
2022-08-12T22:04:49.879Z,2.81
2022-08-12T22:07:18.696Z,2.88
2022-08-12T22:09:45.388Z,2.81
2022-08-12T22:12:12.057Z,2.67
2022-08-12T22:14:38.483Z,2.97
2022-08-12T22:17:06.377Z,2.82
2022-08-12T22:19:33.624Z,2.71
2022-08-12T22:22:03.994Z,2.80
2022-08-12T22:24:31.341Z,2.93
2022-08-12T22:26:57.841Z,2.89
2022-08-12T22:29:27.405Z,2.85
2022-08-12T22:31:54.006Z,2.78
2022-08-12T22:34:20.425Z,2.81
2022-08-12T22:36:46.823Z,2.62
2022-08-12T22:39:16.190Z,2.77
2022-08-12T22:41:42.751Z,2.70
2022-08-12T22:44:09.200Z,2.79
2022-08-12T22:46:36.745Z,2.63
2022-08-12T22:49:03.534Z,2.60
2022-08-12T22:52:00.123Z,2.84
2022-08-12T22:54:35.767Z,2.87
2022-08-12T22:57:03.593Z,2.82
2022-08-12T22:59:51.503Z,2.82
2022-08-12T23:02:16.389Z,2.73
2022-08-12T23:04:42.927Z,2.62
2022-08-12T23:07:09.526Z,2.57
2022-08-12T23:09:48.302Z,2.74
2022-08-12T23:12:22.607Z,2.92
2022-08-12T23:14:51.651Z,2.78
2022-08-12T23:17:21.136Z,3.03
2022-08-12T23:20:01.744Z,2.75
2022-08-12T23:22:35.761Z,2.99
2022-08-12T23:25:20.992Z,2.92
2022-08-12T23:27:52.014Z,2.78
2022-08-12T23:30:24.999Z,2.87
2022-08-12T23:32:59.744Z,2.86
2022-08-12T23:35:46.120Z,2.59
2022-08-12T23:38:30.868Z,2.88
2022-08-12T23:40:58.389Z,2.93
2022-08-12T23:43:24.821Z,2.83
2022-08-12T23:46:01.061Z,2.93
2022-08-12T23:48:31.374Z,2.83
2022-08-12T23:50:58.218Z,3.03
2022-08-12T23:53:24.639Z,2.80
2022-08-12T23:55:58.898Z,2.93
2022-08-12T23:58:26.470Z,2.82
